LC10 LGKP-LCPH
Flight info
| Callsign | LC10 |
|---|---|
| Flight time | 0h 50m |
| Altitude | 310 |
| Route | NIPI2A NIPIS UM978 TOSKA M67 MEZUS |
| Aircraft | B733/M-V/N |
Departure
| Time | 2026-04-18 07:20 |
|---|---|
| Airport | Karpathos Airport (LGKP) |
Arrival
| Time | 2026-04-18 08:11 |
|---|---|
| Airport | Paphos International Airport (LCPH) |
| Time | Latitude | Longitude | Altitude | Speed | Heading |
|---|---|---|---|---|---|
| 2026-04-18 07:15 | 35.41680 | 27.15680 | 72 ft | 0 kts | 261° |
| 2026-04-18 07:18 | 35.41680 | 27.15678 | 72 ft | 0 kts | 260° |
| 2026-04-18 07:18 | 35.41678 | 27.15669 | 72 ft | 1 kts | 242° |
| 2026-04-18 07:18 | 35.41662 | 27.15657 | 72 ft | 5 kts | 184° |
| 2026-04-18 07:19 | 35.41612 | 27.15666 | 72 ft | 8 kts | 175° |
| 2026-04-18 07:19 | 35.41552 | 27.15667 | 72 ft | 8 kts | 187° |
| 2026-04-18 07:19 | 35.41527 | 27.15608 | 72 ft | 11 kts | 302° |
| 2026-04-18 07:19 | 35.41636 | 27.15416 | 72 ft | 57 kts | 304° |
| 2026-04-18 07:20 | 35.41995 | 27.14781 | 72 ft | 122 kts | 304° |
| 2026-04-18 07:20 | 35.42586 | 27.13744 | 166 ft | 164 kts | 302° |
| 2026-04-18 07:20 | 35.43268 | 27.12570 | 678 ft | 175 kts | 303° |
| 2026-04-18 07:20 | 35.43981 | 27.11386 | 1415 ft | 174 kts | 301° |
| 2026-04-18 07:21 | 35.44664 | 27.10148 | 1918 ft | 177 kts | 301° |
| 2026-04-18 07:21 | 35.45358 | 27.08898 | 2374 ft | 179 kts | 301° |
| 2026-04-18 07:21 | 35.46062 | 27.07633 | 2828 ft | 181 kts | 301° |
| 2026-04-18 07:21 | 35.46773 | 27.06360 | 3280 ft | 183 kts | 301° |
| 2026-04-18 07:22 | 35.47494 | 27.05056 | 3698 ft | 190 kts | 297° |
| 2026-04-18 07:22 | 35.47850 | 27.03486 | 4053 ft | 201 kts | 267° |
| 2026-04-18 07:22 | 35.47421 | 27.01786 | 4459 ft | 219 kts | 237° |
| 2026-04-18 07:22 | 35.46137 | 27.00616 | 4633 ft | 252 kts | 199° |
| 2026-04-18 07:23 | 35.44338 | 27.00662 | 5113 ft | 275 kts | 163° |
| 2026-04-18 07:23 | 35.42763 | 27.02041 | 5764 ft | 289 kts | 129° |
| 2026-04-18 07:23 | 35.42001 | 27.04321 | 6431 ft | 296 kts | 95° |
| 2026-04-18 07:23 | 35.42090 | 27.06845 | 7108 ft | 299 kts | 86° |
| 2026-04-18 07:24 | 35.42178 | 27.09380 | 7788 ft | 302 kts | 90° |
| 2026-04-18 07:24 | 35.42156 | 27.11973 | 8469 ft | 304 kts | 92° |
| 2026-04-18 07:24 | 35.42062 | 27.14556 | 9128 ft | 306 kts | 95° |
| 2026-04-18 07:24 | 35.41470 | 27.17030 | 9738 ft | 303 kts | 126° |
| 2026-04-18 07:25 | 35.40008 | 27.18815 | 10010 ft | 310 kts | 154° |
| 2026-04-18 07:25 | 35.37925 | 27.19582 | 10076 ft | 324 kts | 174° |
| 2026-04-18 07:25 | 35.35751 | 27.20513 | 10369 ft | 345 kts | 149° |
| 2026-04-18 07:25 | 35.33854 | 27.22347 | 10946 ft | 352 kts | 143° |
| 2026-04-18 07:26 | 35.31967 | 27.24248 | 11611 ft | 354 kts | 143° |
| 2026-04-18 07:26 | 35.30057 | 27.26142 | 12258 ft | 356 kts | 144° |
| 2026-04-18 07:26 | 35.28125 | 27.28039 | 12862 ft | 359 kts | 144° |
| 2026-04-18 07:26 | 35.26170 | 27.29947 | 13445 ft | 363 kts | 144° |
| 2026-04-18 07:27 | 35.24195 | 27.31869 | 14017 ft | 366 kts | 144° |
| 2026-04-18 07:27 | 35.22202 | 27.33805 | 14578 ft | 369 kts | 144° |
| 2026-04-18 07:27 | 35.20193 | 27.35754 | 15123 ft | 372 kts | 144° |
| 2026-04-18 07:27 | 35.18167 | 27.37718 | 15657 ft | 375 kts | 144° |
| 2026-04-18 07:28 | 35.16124 | 27.39696 | 16179 ft | 378 kts | 144° |
| 2026-04-18 07:28 | 35.14043 | 27.41710 | 16696 ft | 381 kts | 144° |
| 2026-04-18 07:28 | 35.11958 | 27.43727 | 17198 ft | 384 kts | 144° |
| 2026-04-18 07:28 | 35.09857 | 27.45757 | 17691 ft | 387 kts | 144° |
| 2026-04-18 07:29 | 35.07742 | 27.47802 | 18176 ft | 390 kts | 143° |
| 2026-04-18 07:29 | 35.05858 | 27.50193 | 18622 ft | 397 kts | 125° |
| 2026-04-18 07:29 | 35.04734 | 27.53268 | 19026 ft | 405 kts | 104° |
| 2026-04-18 07:29 | 35.04459 | 27.56692 | 19453 ft | 409 kts | 91° |
| 2026-04-18 07:30 | 35.04419 | 27.60169 | 19903 ft | 412 kts | 91° |
| 2026-04-18 07:30 | 35.04371 | 27.63666 | 20354 ft | 415 kts | 91° |
| 2026-04-18 07:30 | 35.04305 | 27.67187 | 20751 ft | 418 kts | 92° |
| 2026-04-18 07:30 | 35.04229 | 27.70740 | 21174 ft | 421 kts | 92° |
| 2026-04-18 07:31 | 35.04149 | 27.74304 | 21610 ft | 422 kts | 92° |
| 2026-04-18 07:31 | 35.04066 | 27.77884 | 22014 ft | 425 kts | 92° |
| 2026-04-18 07:31 | 35.03982 | 27.81485 | 22411 ft | 427 kts | 92° |
| 2026-04-18 07:31 | 35.03895 | 27.85108 | 22790 ft | 430 kts | 92° |
| 2026-04-18 07:32 | 35.03807 | 27.88751 | 23163 ft | 432 kts | 92° |
| 2026-04-18 07:32 | 35.03717 | 27.92416 | 23522 ft | 435 kts | 92° |
| 2026-04-18 07:32 | 35.03626 | 27.96103 | 23885 ft | 437 kts | 92° |
| 2026-04-18 07:32 | 35.03533 | 27.99811 | 24240 ft | 439 kts | 92° |
| 2026-04-18 07:33 | 35.03441 | 28.03432 | 24578 ft | 442 kts | 92° |
| 2026-04-18 07:33 | 35.03343 | 28.07239 | 24928 ft | 444 kts | 92° |
| 2026-04-18 07:33 | 35.03245 | 28.11006 | 25259 ft | 447 kts | 92° |
| 2026-04-18 07:33 | 35.03145 | 28.14793 | 25589 ft | 449 kts | 92° |
| 2026-04-18 07:34 | 35.03044 | 28.18598 | 25917 ft | 451 kts | 92° |
| 2026-04-18 07:34 | 35.02941 | 28.22424 | 26231 ft | 454 kts | 92° |
| 2026-04-18 07:34 | 35.02836 | 28.26268 | 26552 ft | 456 kts | 92° |
| 2026-04-18 07:34 | 35.02729 | 28.30130 | 26860 ft | 458 kts | 92° |
| 2026-04-18 07:35 | 35.02621 | 28.34014 | 27145 ft | 461 kts | 92° |
| 2026-04-18 07:35 | 35.02511 | 28.37917 | 27447 ft | 462 kts | 92° |
| 2026-04-18 07:35 | 35.02399 | 28.41828 | 27811 ft | 463 kts | 92° |
| 2026-04-18 07:35 | 35.02287 | 28.45732 | 28221 ft | 461 kts | 92° |
| 2026-04-18 07:36 | 35.02173 | 28.49626 | 28622 ft | 460 kts | 92° |
| 2026-04-18 07:36 | 35.02058 | 28.53510 | 28997 ft | 459 kts | 92° |
| 2026-04-18 07:36 | 35.01943 | 28.57390 | 29340 ft | 459 kts | 92° |
| 2026-04-18 07:36 | 35.01826 | 28.61272 | 29664 ft | 459 kts | 92° |
| 2026-04-18 07:37 | 35.01700 | 28.65146 | 29983 ft | 458 kts | 94° |
| 2026-04-18 07:37 | 35.01558 | 28.69028 | 30218 ft | 460 kts | 94° |
| 2026-04-18 07:37 | 35.01424 | 28.72914 | 30518 ft | 459 kts | 93° |
| 2026-04-18 07:37 | 35.01296 | 28.76802 | 30692 ft | 460 kts | 93° |
| 2026-04-18 07:38 | 35.01044 | 28.84542 | 30714 ft | 455 kts | 94° |
| 2026-04-18 07:38 | 35.00790 | 28.92224 | 30691 ft | 453 kts | 94° |
| 2026-04-18 07:39 | 35.00532 | 28.99893 | 30695 ft | 454 kts | 94° |
| 2026-04-18 07:39 | 35.00269 | 29.07563 | 30700 ft | 453 kts | 95° |
| 2026-04-18 07:40 | 35.00000 | 29.15228 | 30703 ft | 454 kts | 95° |
| 2026-04-18 07:40 | 34.99727 | 29.22907 | 30716 ft | 455 kts | 95° |
| 2026-04-18 07:41 | 34.99448 | 29.30598 | 30725 ft | 455 kts | 95° |
| 2026-04-18 07:41 | 34.99149 | 29.38294 | 30726 ft | 456 kts | 95° |
| 2026-04-18 07:42 | 34.98851 | 29.46000 | 30724 ft | 457 kts | 95° |
| 2026-04-18 07:42 | 34.98558 | 29.53721 | 30725 ft | 457 kts | 95° |
| 2026-04-18 07:43 | 34.98260 | 29.61429 | 30726 ft | 458 kts | 95° |
| 2026-04-18 07:43 | 34.97958 | 29.69175 | 30696 ft | 458 kts | 95° |
| 2026-04-18 07:44 | 34.97645 | 29.76925 | 30724 ft | 459 kts | 96° |
| 2026-04-18 07:44 | 34.97321 | 29.84709 | 30726 ft | 460 kts | 95° |
| 2026-04-18 07:45 | 34.97000 | 29.92502 | 30725 ft | 460 kts | 95° |
| 2026-04-18 07:45 | 34.96569 | 30.00288 | 30713 ft | 457 kts | 106° |
| 2026-04-18 07:46 | 34.95483 | 30.03863 | 30731 ft | 450 kts | 121° |
| 2026-04-18 07:46 | 34.94021 | 30.07244 | 30718 ft | 455 kts | 122° |
| 2026-04-18 07:46 | 34.91141 | 30.14177 | 30724 ft | 465 kts | 120° |
| 2026-04-18 07:47 | 34.88314 | 30.21312 | 30713 ft | 473 kts | 120° |
| 2026-04-18 07:47 | 34.85458 | 30.28542 | 30728 ft | 475 kts | 120° |
| 2026-04-18 07:48 | 34.82601 | 30.35787 | 30686 ft | 474 kts | 120° |
| 2026-04-18 07:48 | 34.79766 | 30.42962 | 30654 ft | 473 kts | 120° |
| 2026-04-18 07:49 | 34.76918 | 30.50153 | 30644 ft | 473 kts | 120° |
| 2026-04-18 07:49 | 34.74066 | 30.57340 | 30643 ft | 473 kts | 120° |
| 2026-04-18 07:50 | 34.71195 | 30.64558 | 30643 ft | 473 kts | 120° |
| 2026-04-18 07:50 | 34.68326 | 30.71780 | 30638 ft | 472 kts | 120° |
| 2026-04-18 07:51 | 34.65448 | 30.78990 | 30644 ft | 473 kts | 120° |
| 2026-04-18 07:51 | 34.62580 | 30.86156 | 30645 ft | 473 kts | 120° |
| 2026-04-18 07:52 | 34.61323 | 30.89841 | 30633 ft | 478 kts | 108° |
| 2026-04-18 07:52 | 34.60628 | 30.93781 | 30652 ft | 480 kts | 103° |
| 2026-04-18 07:52 | 34.59444 | 31.01715 | 30412 ft | 476 kts | 103° |
| 2026-04-18 07:53 | 34.58812 | 31.05646 | 29533 ft | 480 kts | 103° |
| 2026-04-18 07:53 | 34.58164 | 31.09571 | 28515 ft | 487 kts | 103° |
| 2026-04-18 07:53 | 34.57494 | 31.13604 | 27321 ft | 498 kts | 103° |
| 2026-04-18 07:53 | 34.56806 | 31.17735 | 26130 ft | 505 kts | 102° |
| 2026-04-18 07:54 | 34.56115 | 31.21886 | 25361 ft | 502 kts | 102° |
| 2026-04-18 07:54 | 34.55430 | 31.25996 | 24747 ft | 495 kts | 102° |
| 2026-04-18 07:54 | 34.54752 | 31.30052 | 24130 ft | 490 kts | 102° |
| 2026-04-18 07:54 | 34.54079 | 31.34063 | 23485 ft | 485 kts | 102° |
| 2026-04-18 07:55 | 34.53412 | 31.38033 | 22831 ft | 480 kts | 102° |
| 2026-04-18 07:55 | 34.52751 | 31.41963 | 22182 ft | 475 kts | 102° |
| 2026-04-18 07:55 | 34.52094 | 31.45853 | 21541 ft | 470 kts | 102° |
| 2026-04-18 07:55 | 34.51444 | 31.49702 | 20909 ft | 465 kts | 102° |
| 2026-04-18 07:56 | 34.50799 | 31.53508 | 20284 ft | 460 kts | 102° |
| 2026-04-18 07:56 | 34.50161 | 31.57271 | 19665 ft | 455 kts | 101° |
| 2026-04-18 07:56 | 34.49528 | 31.60994 | 19053 ft | 450 kts | 101° |
| 2026-04-18 07:56 | 34.48901 | 31.64672 | 18448 ft | 445 kts | 101° |
| 2026-04-18 07:57 | 34.48280 | 31.68316 | 17836 ft | 439 kts | 102° |
| 2026-04-18 07:57 | 34.47668 | 31.71908 | 17250 ft | 434 kts | 102° |
| 2026-04-18 07:57 | 34.47061 | 31.75453 | 16673 ft | 428 kts | 102° |
| 2026-04-18 07:57 | 34.46460 | 31.78953 | 16099 ft | 423 kts | 102° |
| 2026-04-18 07:58 | 34.45278 | 31.85824 | 14968 ft | 412 kts | 102° |
| 2026-04-18 07:58 | 34.44696 | 31.89196 | 14413 ft | 407 kts | 102° |
| 2026-04-18 07:58 | 34.44122 | 31.92523 | 13865 ft | 402 kts | 102° |
| 2026-04-18 07:59 | 34.43553 | 31.95808 | 13324 ft | 397 kts | 102° |
| 2026-04-18 07:59 | 34.42990 | 31.99050 | 12790 ft | 392 kts | 102° |
| 2026-04-18 07:59 | 34.42433 | 32.02256 | 12263 ft | 387 kts | 102° |
| 2026-04-18 07:59 | 34.41933 | 32.05426 | 11739 ft | 382 kts | 95° |
| 2026-04-18 08:00 | 34.42210 | 32.08547 | 11498 ft | 365 kts | 75° |
| 2026-04-18 08:00 | 34.42820 | 32.11462 | 11414 ft | 347 kts | 75° |
| 2026-04-18 08:00 | 34.43387 | 32.14226 | 11109 ft | 333 kts | 75° |
| 2026-04-18 08:00 | 34.43933 | 32.16928 | 10662 ft | 325 kts | 76° |
| 2026-04-18 08:01 | 34.44460 | 32.19564 | 10195 ft | 321 kts | 76° |
| 2026-04-18 08:01 | 34.44981 | 32.22181 | 9771 ft | 318 kts | 76° |
| 2026-04-18 08:01 | 34.45491 | 32.24752 | 9593 ft | 305 kts | 76° |
| 2026-04-18 08:01 | 34.45970 | 32.27173 | 9604 ft | 286 kts | 76° |
| 2026-04-18 08:02 | 34.46418 | 32.29442 | 9615 ft | 268 kts | 76° |
| 2026-04-18 08:02 | 34.46846 | 32.31607 | 9565 ft | 269 kts | 76° |
| 2026-04-18 08:02 | 34.47301 | 32.33899 | 9313 ft | 287 kts | 75° |
| 2026-04-18 08:02 | 34.48167 | 32.36026 | 8895 ft | 283 kts | 44° |
| 2026-04-18 08:03 | 34.49770 | 32.37306 | 8471 ft | 278 kts | 17° |
| 2026-04-18 08:03 | 34.51675 | 32.37487 | 7812 ft | 280 kts | 345° |
| 2026-04-18 08:03 | 34.53401 | 32.36514 | 7344 ft | 274 kts | 317° |
| 2026-04-18 08:03 | 34.54726 | 32.34901 | 6998 ft | 270 kts | 322° |
| 2026-04-18 08:04 | 34.56348 | 32.33844 | 6696 ft | 266 kts | 333° |
| 2026-04-18 08:04 | 34.58033 | 32.32896 | 6328 ft | 264 kts | 333° |
| 2026-04-18 08:04 | 34.59690 | 32.31959 | 5961 ft | 263 kts | 333° |
| 2026-04-18 08:04 | 34.61316 | 32.31036 | 5620 ft | 260 kts | 333° |
| 2026-04-18 08:05 | 34.62954 | 32.30103 | 5281 ft | 257 kts | 333° |
| 2026-04-18 08:05 | 34.64561 | 32.29187 | 4929 ft | 256 kts | 333° |
| 2026-04-18 08:05 | 34.66171 | 32.28267 | 4592 ft | 253 kts | 333° |
| 2026-04-18 08:05 | 34.67755 | 32.27360 | 4277 ft | 253 kts | 333° |
| 2026-04-18 08:06 | 34.69369 | 32.26436 | 3954 ft | 261 kts | 333° |
| 2026-04-18 08:06 | 34.71019 | 32.25539 | 3620 ft | 259 kts | 342° |
| 2026-04-18 08:06 | 34.72749 | 32.25529 | 3491 ft | 251 kts | 17° |
| 2026-04-18 08:06 | 34.74346 | 32.26199 | 3516 ft | 237 kts | 19° |
| 2026-04-18 08:07 | 34.75877 | 32.26872 | 3522 ft | 234 kts | 22° |
| 2026-04-18 08:07 | 34.77145 | 32.28083 | 3457 ft | 227 kts | 62° |
| 2026-04-18 08:07 | 34.77445 | 32.29839 | 3279 ft | 207 kts | 105° |
| 2026-04-18 08:07 | 34.77001 | 32.31434 | 3137 ft | 193 kts | 113° |
| 2026-04-18 08:08 | 34.76530 | 32.32967 | 2798 ft | 192 kts | 112° |
| 2026-04-18 08:08 | 34.76062 | 32.34497 | 2420 ft | 193 kts | 113° |
| 2026-04-18 08:08 | 34.75594 | 32.36028 | 2073 ft | 185 kts | 113° |
| 2026-04-18 08:08 | 34.75149 | 32.37488 | 1762 ft | 185 kts | 113° |
| 2026-04-18 08:09 | 34.74697 | 32.38969 | 1548 ft | 183 kts | 113° |
| 2026-04-18 08:09 | 34.74253 | 32.40424 | 1362 ft | 183 kts | 113° |
| 2026-04-18 08:09 | 34.73810 | 32.41878 | 1162 ft | 182 kts | 113° |
| 2026-04-18 08:09 | 34.73391 | 32.43261 | 910 ft | 169 kts | 113° |
| 2026-04-18 08:10 | 34.72989 | 32.44584 | 515 ft | 163 kts | 114° |
| 2026-04-18 08:10 | 34.72623 | 32.45813 | 228 ft | 145 kts | 112° |
| 2026-04-18 08:10 | 34.72279 | 32.46965 | 76 ft | 147 kts | 114° |
| 2026-04-18 08:10 | 34.71937 | 32.48067 | 45 ft | 117 kts | 109° |
| 2026-04-18 08:11 | 34.71715 | 32.48806 | 37 ft | 69 kts | 111° |
| 2026-04-18 08:11 | 34.71583 | 32.48999 | 36 ft | 20 kts | 202° |
| 2026-04-18 08:11 | 34.71496 | 32.48923 | 33 ft | 16 kts | 239° |
| 2026-04-18 08:11 | 34.71448 | 32.48782 | 29 ft | 19 kts | 246° |
| 2026-04-18 08:12 | 34.71392 | 32.48639 | 28 ft | 12 kts | 234° |
| 2026-04-18 08:12 | 34.71320 | 32.48660 | 23 ft | 4 kts | 153° |
| 2026-04-18 08:12 | 34.71310 | 32.48666 | 22 ft | 0 kts | 156° |